createdAt,value
2023-03-12T00:01:40.613Z,77.03
2023-03-12T00:04:42.007Z,76.98
2023-03-12T00:07:43.405Z,77.20
2023-03-12T00:10:44.823Z,77.32
2023-03-12T00:13:52.807Z,79.65
2023-03-12T00:16:55.670Z,80.19
2023-03-12T00:19:57.074Z,80.99
2023-03-12T00:22:58.533Z,79.62
2023-03-12T00:26:05.966Z,80.64
2023-03-12T00:29:07.393Z,81.16
2023-03-12T00:32:08.890Z,79.24
2023-03-12T00:35:10.623Z,80.21
2023-03-12T00:38:12.025Z,82.33
2023-03-12T00:41:13.444Z,81.30
2023-03-12T00:44:14.926Z,81.71
2023-03-12T00:47:16.350Z,81.75
2023-03-12T00:50:17.846Z,80.53
2023-03-12T00:53:19.407Z,80.93
2023-03-12T00:56:20.985Z,80.69
2023-03-12T00:59:22.564Z,80.19
2023-03-12T01:02:24.014Z,81.09
2023-03-12T01:05:25.482Z,80.96
2023-03-12T01:08:27.286Z,80.86
2023-03-12T01:11:29.296Z,80.02
2023-03-12T01:14:30.896Z,80.38
2023-03-12T01:17:32.425Z,81.02
2023-03-12T01:20:33.978Z,82.07
2023-03-12T01:23:35.378Z,81.75
2023-03-12T01:26:36.773Z,81.17
2023-03-12T01:29:38.150Z,80.51
2023-03-12T01:32:39.717Z,79.97
2023-03-12T01:35:41.696Z,80.61
2023-03-12T01:38:43.274Z,80.44
2023-03-12T01:41:44.691Z,79.94
2023-03-12T01:45:00.080Z,80.26
2023-03-12T01:48:03.237Z,81.01
2023-03-12T01:51:05.779Z,79.68
2023-03-12T01:54:13.419Z,79.48
2023-03-12T01:57:20.846Z,81.14
2023-03-12T02:00:25.714Z,80.04
2023-03-12T02:03:31.464Z,80.29
2023-03-12T02:06:38.830Z,81.07
2023-03-12T02:09:45.135Z,81.46
2023-03-12T02:12:46.616Z,82.52
2023-03-12T02:15:48.113Z,83.30
2023-03-12T02:18:52.541Z,83.45
2023-03-12T02:21:54.017Z,82.18
2023-03-12T02:25:06.776Z,81.94
2023-03-12T02:28:12.490Z,80.79
2023-03-12T02:31:18.170Z,81.18
2023-03-12T02:34:19.751Z,80.30
2023-03-12T02:37:21.368Z,82.53
2023-03-12T02:40:27.390Z,80.68
2023-03-12T02:43:29.103Z,80.81
2023-03-12T02:46:36.179Z,80.85
2023-03-12T02:49:37.943Z,80.32
2023-03-12T02:52:39.978Z,81.31
2023-03-12T02:55:41.481Z,81.12
2023-03-12T02:58:42.991Z,80.16
2023-03-12T03:01:45.184Z,80.21
2023-03-12T03:04:47.155Z,80.53
2023-03-12T03:07:48.674Z,79.73
2023-03-12T03:10:52.270Z,78.98
2023-03-12T03:13:55.019Z,78.23
2023-03-12T03:16:57.083Z,78.16
2023-03-12T03:19:58.532Z,78.19
2023-03-12T03:22:59.980Z,78.25
2023-03-12T03:26:01.862Z,77.48
2023-03-12T03:29:03.525Z,77.58
2023-03-12T03:32:05.594Z,77.91
2023-03-12T03:35:07.374Z,77.34
2023-03-12T03:38:08.907Z,76.89
2023-03-12T03:41:10.660Z,78.63
2023-03-12T03:44:16.978Z,78.36
2023-03-12T03:47:18.545Z,78.11
2023-03-12T03:50:20.083Z,78.10
2023-03-12T03:53:21.694Z,76.97
2023-03-12T03:56:23.266Z,76.84
2023-03-12T03:59:25.356Z,74.90
2023-03-12T04:02:28.257Z,75.87
2023-03-12T04:05:29.911Z,74.37
2023-03-12T04:08:32.919Z,74.55
2023-03-12T04:11:34.519Z,74.25
2023-03-12T04:14:40.684Z,75.69
2023-03-12T04:17:42.774Z,74.76
2023-03-12T04:20:45.114Z,75.27
2023-03-12T04:23:46.572Z,75.00
2023-03-12T04:26:49.648Z,75.39
2023-03-12T04:29:51.172Z,74.59
2023-03-12T04:32:54.092Z,74.55
2023-03-12T04:35:56.541Z,74.45
2023-03-12T04:38:58.183Z,75.39
2023-03-12T04:42:04.095Z,74.37
2023-03-12T04:45:06.764Z,74.87
2023-03-12T04:48:10.854Z,74.80
2023-03-12T04:51:12.276Z,73.82
2023-03-12T04:54:14.038Z,75.05
2023-03-12T04:57:17.028Z,75.10
2023-03-12T05:00:18.758Z,76.26
2023-03-12T05:03:21.412Z,77.28
2023-03-12T05:06:24.416Z,76.60
2023-03-12T05:09:26.568Z,75.28
2023-03-12T05:12:28.074Z,75.13
2023-03-12T05:15:29.517Z,76.43
2023-03-12T05:18:31.822Z,77.83
2023-03-12T05:21:33.408Z,75.86
2023-03-12T05:24:35.614Z,76.24
2023-03-12T05:27:37.478Z,76.70
2023-03-12T05:30:39.985Z,75.47
2023-03-12T05:33:41.643Z,76.79
2023-03-12T05:36:43.846Z,77.06
2023-03-12T05:39:49.293Z,77.49
2023-03-12T05:42:53.024Z,79.52
2023-03-12T05:46:04.513Z,79.84
2023-03-12T05:49:08.344Z,81.94
2023-03-12T05:52:10.555Z,83.27
2023-03-12T05:55:11.949Z,84.38
2023-03-12T05:58:13.459Z,84.48
2023-03-12T06:01:20.752Z,84.25
2023-03-12T06:04:22.638Z,86.16
2023-03-12T06:07:24.557Z,87.57
2023-03-12T06:10:26.051Z,87.79
2023-03-12T06:13:28.313Z,87.44
2023-03-12T06:16:31.205Z,89.33
2023-03-12T06:19:32.805Z,91.01
2023-03-12T06:22:34.577Z,92.47
2023-03-12T06:25:36.004Z,94.96
2023-03-12T06:28:38.811Z,97.13
2023-03-12T06:31:41.990Z,98.68
2023-03-12T06:34:43.429Z,99.72
2023-03-12T06:37:44.849Z,100.00
2023-03-12T06:41:00.611Z,100.00
2023-03-12T06:44:05.871Z,100.00
2023-03-12T06:47:07.345Z,100.00
2023-03-12T06:50:09.482Z,100.00
2023-03-12T06:53:10.947Z,100.00
2023-03-12T06:56:13.469Z,100.00
2023-03-12T06:59:14.912Z,100.00
2023-03-12T07:02:16.358Z,100.00
2023-03-12T07:05:17.832Z,100.00
2023-03-12T07:08:19.247Z,100.00
2023-03-12T07:11:20.827Z,100.00
2023-03-12T07:14:22.236Z,100.00
2023-03-12T07:17:24.503Z,100.00
2023-03-12T07:20:26.049Z,100.00
2023-03-12T07:23:28.028Z,100.00
2023-03-12T07:26:29.432Z,100.00
2023-03-12T07:29:30.806Z,100.00
2023-03-12T07:32:33.511Z,100.00
2023-03-12T07:35:35.481Z,100.00
2023-03-12T07:38:37.186Z,100.00
2023-03-12T07:41:39.017Z,100.00
2023-03-12T07:44:40.406Z,100.00
2023-03-12T07:47:41.936Z,100.00
2023-03-12T07:50:43.429Z,100.00
2023-03-12T07:53:44.856Z,100.00
2023-03-12T07:56:46.401Z,100.00
2023-03-12T07:59:48.210Z,100.00
2023-03-12T08:02:50.271Z,100.00
2023-03-12T08:06:00.621Z,100.00
2023-03-12T08:09:02.070Z,100.00
2023-03-12T08:12:03.704Z,100.00
2023-03-12T08:15:08.265Z,100.00
2023-03-12T08:18:10.038Z,100.00
2023-03-12T08:21:11.502Z,100.00
2023-03-12T08:24:12.922Z,100.00
2023-03-12T08:27:14.486Z,100.00
2023-03-12T08:30:16.259Z,100.00
2023-03-12T08:33:18.009Z,100.00
2023-03-12T08:36:21.937Z,100.00
2023-03-12T08:39:23.785Z,100.00
2023-03-12T08:42:25.201Z,100.00
2023-03-12T08:45:26.759Z,100.00
2023-03-12T08:48:29.587Z,100.00
2023-03-12T08:51:31.050Z,100.00
2023-03-12T08:54:32.631Z,100.00
2023-03-12T08:57:34.196Z,100.00
2023-03-12T09:00:35.940Z,100.00
2023-03-12T09:03:37.621Z,100.00
2023-03-12T09:06:39.095Z,100.00
2023-03-12T09:09:40.533Z,100.00
2023-03-12T09:12:42.070Z,100.00
2023-03-12T09:15:43.769Z,100.00
2023-03-12T09:18:45.237Z,100.00
2023-03-12T09:21:46.618Z,100.00
2023-03-12T09:24:48.000Z,100.00
2023-03-12T09:27:49.492Z,100.00
2023-03-12T09:30:51.342Z,100.00
2023-03-12T09:33:52.776Z,100.00
2023-03-12T09:36:54.939Z,100.00
2023-03-12T09:39:56.333Z,100.00
2023-03-12T09:43:13.527Z,100.00
2023-03-12T09:46:20.703Z,100.00
2023-03-12T09:49:46.750Z,100.00
2023-03-12T09:53:04.466Z,100.00
2023-03-12T09:56:10.162Z,100.00
2023-03-12T09:59:13.026Z,100.00
2023-03-12T10:02:37.165Z,100.00
2023-03-12T10:05:44.711Z,100.00
2023-03-12T10:09:24.240Z,100.00
2023-03-12T10:12:52.161Z,100.00
2023-03-12T10:16:20.706Z,100.00
2023-03-12T10:19:47.243Z,100.00
2023-03-12T10:22:59.959Z,100.00
2023-03-12T10:26:17.223Z,100.00
2023-03-12T10:29:35.606Z,100.00
2023-03-12T10:32:48.068Z,100.00
2023-03-12T10:35:50.483Z,100.00
2023-03-12T10:38:51.984Z,100.00
2023-03-12T10:42:00.260Z,100.00
2023-03-12T10:45:17.751Z,100.00
2023-03-12T10:48:21.966Z,100.00
2023-03-12T10:51:23.342Z,100.00
2023-03-12T10:54:31.851Z,100.00
2023-03-12T10:57:41.386Z,100.00
2023-03-12T11:00:56.682Z,100.00
2023-03-12T11:04:18.265Z,100.00
2023-03-12T11:07:27.772Z,100.00
2023-03-12T11:10:32.997Z,100.00
2023-03-12T11:13:38.838Z,100.00
2023-03-12T11:16:40.271Z,100.00
2023-03-12T11:19:41.938Z,100.00
2023-03-12T11:22:43.391Z,100.00
2023-03-12T11:25:52.101Z,100.00
2023-03-12T11:29:03.218Z,100.00
2023-03-12T11:32:29.968Z,100.00
2023-03-12T11:35:45.332Z,100.00
2023-03-12T11:39:07.561Z,100.00
2023-03-12T11:42:20.667Z,100.00
2023-03-12T11:45:46.745Z,100.00
2023-03-12T11:49:09.458Z,100.00
2023-03-12T11:52:20.788Z,100.00
2023-03-12T11:55:38.064Z,100.00
2023-03-12T11:58:53.166Z,100.00
2023-03-12T12:02:11.760Z,100.00
2023-03-12T12:05:32.047Z,100.00
2023-03-12T12:08:43.846Z,100.00
2023-03-12T12:12:05.576Z,100.00
2023-03-12T12:15:15.990Z,100.00
2023-03-12T12:19:08.428Z,100.00
2023-03-12T12:22:37.190Z,100.00
2023-03-12T12:25:52.618Z,100.00
2023-03-12T12:29:22.082Z,100.00
2023-03-12T12:33:00.119Z,100.00
2023-03-12T12:36:02.556Z,100.00
2023-03-12T12:39:30.962Z,100.00
2023-03-12T12:42:36.367Z,100.00
2023-03-12T12:45:40.873Z,100.00
2023-03-12T12:48:53.683Z,100.00
2023-03-12T12:52:03.281Z,100.00
2023-03-12T12:55:22.588Z,100.00
2023-03-12T12:58:29.536Z,100.00
2023-03-12T13:01:34.044Z,100.00
2023-03-12T13:04:38.466Z,100.00
2023-03-12T13:07:39.907Z,100.00
2023-03-12T13:10:52.997Z,100.00
2023-03-12T13:14:02.273Z,100.00
2023-03-12T13:17:28.972Z,100.00
2023-03-12T13:20:53.388Z,100.00
2023-03-12T13:24:11.933Z,100.00
2023-03-12T13:27:31.237Z,100.00
2023-03-12T13:30:32.559Z,100.00
2023-03-12T13:33:45.271Z,100.00
2023-03-12T13:36:50.341Z,100.00
2023-03-12T13:39:51.826Z,100.00
2023-03-12T13:43:09.667Z,100.00
2023-03-12T13:46:34.904Z,100.00
2023-03-12T13:49:41.596Z,97.46
2023-03-12T13:53:00.505Z,89.20
2023-03-12T13:56:14.494Z,83.99
2023-03-12T13:59:19.179Z,82.33
2023-03-12T14:02:49.968Z,79.37
2023-03-12T14:06:05.778Z,75.57
2023-03-12T14:09:24.150Z,74.50
2023-03-12T14:12:53.443Z,73.59
2023-03-12T14:16:30.454Z,72.57
2023-03-12T14:19:35.014Z,73.69
2023-03-12T14:22:39.399Z,76.36
2023-03-12T14:25:46.179Z,75.25
2023-03-12T14:28:54.744Z,76.92
2023-03-12T14:32:02.028Z,78.92
2023-03-12T14:35:12.377Z,80.63
2023-03-12T14:38:21.556Z,80.46
2023-03-12T14:41:29.934Z,78.69
2023-03-12T14:44:33.297Z,77.16
2023-03-12T14:47:46.001Z,77.89
2023-03-12T14:50:48.663Z,79.38
2023-03-12T14:53:51.194Z,80.38
2023-03-12T14:56:52.720Z,81.90
2023-03-12T14:59:57.874Z,82.21
2023-03-12T15:03:04.368Z,81.57
2023-03-12T15:06:13.966Z,81.04
2023-03-12T15:09:24.752Z,81.29
2023-03-12T15:12:33.176Z,82.29
2023-03-12T15:15:43.990Z,83.63
2023-03-12T15:18:47.439Z,83.39
2023-03-12T15:21:50.451Z,82.90
2023-03-12T15:24:51.903Z,81.83
2023-03-12T15:28:11.485Z,81.50
2023-03-12T15:31:15.997Z,81.76
2023-03-12T15:34:36.261Z,81.87
2023-03-12T15:37:41.074Z,81.53
2023-03-12T15:40:48.996Z,81.57
2023-03-12T15:43:54.876Z,82.34
2023-03-12T15:47:11.192Z,81.57
2023-03-12T15:50:18.740Z,80.23
2023-03-12T15:53:20.115Z,79.78
2023-03-12T15:56:23.385Z,78.37
2023-03-12T15:59:28.450Z,78.58
2023-03-12T16:02:38.262Z,78.72
2023-03-12T16:05:40.045Z,79.03
2023-03-12T16:08:46.294Z,80.16
2023-03-12T16:11:48.424Z,79.79
2023-03-12T16:14:49.863Z,80.01
2023-03-12T16:17:51.335Z,78.33
2023-03-12T16:20:53.235Z,78.59
2023-03-12T16:23:54.719Z,77.93
2023-03-12T16:26:59.862Z,77.69
2023-03-12T16:30:01.277Z,78.46
2023-03-12T16:33:08.957Z,79.08
2023-03-12T16:36:16.588Z,79.11
2023-03-12T16:39:18.997Z,78.39
2023-03-12T16:42:20.913Z,77.84
2023-03-12T16:45:22.971Z,77.28
2023-03-12T16:48:24.708Z,76.87
2023-03-12T16:51:28.204Z,76.85
2023-03-12T16:54:29.573Z,75.74
2023-03-12T16:57:36.999Z,73.33
2023-03-12T17:00:38.547Z,72.74
2023-03-12T17:03:43.620Z,73.99
2023-03-12T17:06:45.159Z,73.90
2023-03-12T17:09:46.672Z,73.77
2023-03-12T17:12:48.583Z,73.75
2023-03-12T17:15:51.364Z,73.30
2023-03-12T17:18:53.131Z,73.46
2023-03-12T17:21:55.124Z,73.40
2023-03-12T17:24:56.542Z,73.71
2023-03-12T17:27:59.005Z,73.38
2023-03-12T17:31:00.577Z,73.18
2023-03-12T17:34:03.828Z,73.98
2023-03-12T17:37:05.404Z,74.04
2023-03-12T17:40:09.005Z,74.53
2023-03-12T17:43:10.860Z,75.56
2023-03-12T17:46:12.281Z,74.19
2023-03-12T17:49:13.786Z,74.81
2023-03-12T17:52:15.200Z,75.78
2023-03-12T17:55:16.637Z,75.79
2023-03-12T17:58:18.108Z,76.07
2023-03-12T18:01:19.672Z,76.20
2023-03-12T18:04:21.137Z,77.08
2023-03-12T18:07:22.640Z,77.82
2023-03-12T18:10:24.139Z,78.85
2023-03-12T18:13:25.540Z,79.91
2023-03-12T18:16:27.055Z,81.12
2023-03-12T18:19:29.336Z,81.42
2023-03-12T18:22:30.846Z,82.35
2023-03-12T18:25:32.297Z,82.88
2023-03-12T18:28:33.767Z,83.09
2023-03-12T18:31:35.256Z,84.00
2023-03-12T18:34:37.560Z,85.53
2023-03-12T18:37:38.975Z,86.28
2023-03-12T18:40:40.405Z,87.26
2023-03-12T18:43:42.134Z,87.92
2023-03-12T18:46:43.666Z,88.43
2023-03-12T18:49:45.368Z,88.79
2023-03-12T18:52:46.791Z,90.50
2023-03-12T18:55:56.576Z,92.49
2023-03-12T18:58:58.000Z,92.94
2023-03-12T19:02:00.165Z,92.76
2023-03-12T19:05:03.878Z,93.33
2023-03-12T19:08:06.014Z,94.23
2023-03-12T19:11:10.383Z,95.72
2023-03-12T19:14:12.331Z,96.03
2023-03-12T19:17:13.756Z,96.24
2023-03-12T19:20:15.654Z,96.25
2023-03-12T19:23:17.076Z,96.61
2023-03-12T19:26:18.470Z,96.80
2023-03-12T19:29:21.357Z,97.96
2023-03-12T19:32:25.405Z,98.77
2023-03-12T19:35:29.287Z,98.59
2023-03-12T19:38:30.878Z,98.58
2023-03-12T19:41:32.250Z,98.94
2023-03-12T19:44:36.145Z,98.32
2023-03-12T19:47:37.791Z,98.04
2023-03-12T19:50:39.227Z,98.57
2023-03-12T19:53:40.846Z,98.68
2023-03-12T19:56:42.227Z,98.84
2023-03-12T19:59:43.615Z,99.37
2023-03-12T20:02:46.045Z,100.00
2023-03-12T20:05:47.609Z,100.00
2023-03-12T20:08:49.159Z,99.87
2023-03-12T20:11:50.583Z,99.34
2023-03-12T20:14:51.978Z,99.27
2023-03-12T20:17:59.463Z,98.86
2023-03-12T20:21:01.079Z,98.80
2023-03-12T20:24:02.678Z,98.57
2023-03-12T20:27:04.439Z,98.65
2023-03-12T20:30:06.531Z,98.44
2023-03-12T20:33:08.361Z,97.85
2023-03-12T20:36:12.424Z,97.15
2023-03-12T20:39:13.981Z,95.74
2023-03-12T20:42:15.383Z,95.73
2023-03-12T20:45:16.880Z,94.89
2023-03-12T20:48:18.542Z,94.40
2023-03-12T20:51:20.015Z,93.71
2023-03-12T20:54:21.668Z,92.76
2023-03-12T20:57:23.056Z,92.78
2023-03-12T21:00:24.578Z,92.24
2023-03-12T21:03:25.986Z,92.03
2023-03-12T21:06:27.903Z,91.73
2023-03-12T21:09:29.290Z,91.59
2023-03-12T21:12:30.747Z,91.14
2023-03-12T21:15:32.159Z,91.68
2023-03-12T21:18:33.655Z,91.91
2023-03-12T21:21:36.345Z,91.38
2023-03-12T21:24:37.888Z,91.61
2023-03-12T21:27:49.977Z,91.57
2023-03-12T21:30:52.339Z,92.51
2023-03-12T21:33:57.880Z,93.07
2023-03-12T21:36:59.362Z,93.88
2023-03-12T21:40:01.452Z,94.24
2023-03-12T21:43:03.374Z,94.28
2023-03-12T21:46:06.918Z,94.28
2023-03-12T21:49:08.485Z,93.98
2023-03-12T21:52:10.011Z,94.19
2023-03-12T21:55:11.416Z,93.68
2023-03-12T21:58:12.868Z,93.86
2023-03-12T22:01:16.837Z,93.43
2023-03-12T22:04:18.418Z,93.66
2023-03-12T22:07:19.881Z,94.40
2023-03-12T22:10:21.254Z,94.93
2023-03-12T22:13:23.070Z,95.60
2023-03-12T22:16:24.568Z,96.05
2023-03-12T22:19:26.108Z,96.28
2023-03-12T22:22:27.566Z,96.81
2023-03-12T22:25:29.014Z,97.16
2023-03-12T22:28:31.798Z,97.87
2023-03-12T22:31:33.554Z,98.39
2023-03-12T22:34:35.182Z,99.06
2023-03-12T22:37:36.578Z,99.38
2023-03-12T22:40:38.289Z,99.83
2023-03-12T22:43:39.766Z,100.00
2023-03-12T22:46:41.230Z,100.00
2023-03-12T22:49:42.678Z,100.00
2023-03-12T22:52:44.058Z,100.00
2023-03-12T22:55:45.445Z,100.00
2023-03-12T22:58:47.636Z,100.00
2023-03-12T23:01:49.077Z,100.00
2023-03-12T23:04:50.526Z,100.00
2023-03-12T23:07:52.015Z,100.00
2023-03-12T23:10:58.622Z,100.00
2023-03-12T23:14:00.043Z,100.00
2023-03-12T23:17:01.518Z,100.00
2023-03-12T23:20:04.777Z,100.00
2023-03-12T23:23:06.292Z,100.00
2023-03-12T23:26:08.275Z,100.00
2023-03-12T23:29:12.689Z,100.00
2023-03-12T23:32:14.186Z,100.00
2023-03-12T23:35:15.800Z,100.00
2023-03-12T23:38:17.261Z,100.00
2023-03-12T23:41:24.611Z,100.00
2023-03-12T23:44:26.170Z,100.00
2023-03-12T23:47:27.616Z,100.00
2023-03-12T23:50:29.024Z,100.00
2023-03-12T23:53:30.649Z,100.00
2023-03-12T23:56:35.847Z,100.00
2023-03-12T23:59:37.236Z,100.00
